sensor_id;sensor_type;location;lat;lon;timestamp;P1;durP1;ratioP1;P2;durP2;ratioP2
55601;SDS011;59921;51.332;12.410;2022-12-07T00:01:44;2.90;;;2.25;;
55601;SDS011;59921;51.332;12.410;2022-12-07T00:04:11;2.70;;;2.15;;
55601;SDS011;59921;51.332;12.410;2022-12-07T00:06:43;3.40;;;2.40;;
55601;SDS011;59921;51.332;12.410;2022-12-07T00:09:11;3.33;;;2.20;;
55601;SDS011;59921;51.332;12.410;2022-12-07T00:11:41;2.88;;;2.30;;
55601;SDS011;59921;51.332;12.410;2022-12-07T00:14:07;3.28;;;2.20;;
55601;SDS011;59921;51.332;12.410;2022-12-07T00:16:36;3.45;;;2.42;;
55601;SDS011;59921;51.332;12.410;2022-12-07T00:19:02;2.80;;;2.30;;
55601;SDS011;59921;51.332;12.410;2022-12-07T00:21:29;2.78;;;2.28;;
55601;SDS011;59921;51.332;12.410;2022-12-07T00:23:57;2.88;;;2.40;;
55601;SDS011;59921;51.332;12.410;2022-12-07T00:26:24;3.20;;;2.35;;
55601;SDS011;59921;51.332;12.410;2022-12-07T00:29:14;2.60;;;2.25;;
55601;SDS011;59921;51.332;12.410;2022-12-07T00:31:41;2.80;;;2.17;;
55601;SDS011;59921;51.332;12.410;2022-12-07T00:34:09;2.35;;;2.10;;
55601;SDS011;59921;51.332;12.410;2022-12-07T00:36:38;3.20;;;2.20;;
55601;SDS011;59921;51.332;12.410;2022-12-07T00:39:04;3.17;;;2.45;;
55601;SDS011;59921;51.332;12.410;2022-12-07T00:41:29;2.50;;;2.10;;
55601;SDS011;59921;51.332;12.410;2022-12-07T00:43:55;3.47;;;2.53;;
55601;SDS011;59921;51.332;12.410;2022-12-07T00:46:21;3.08;;;2.30;;
55601;SDS011;59921;51.332;12.410;2022-12-07T00:48:47;2.90;;;2.22;;
55601;SDS011;59921;51.332;12.410;2022-12-07T00:51:14;2.65;;;2.25;;
55601;SDS011;59921;51.332;12.410;2022-12-07T00:53:41;2.67;;;2.22;;
55601;SDS011;59921;51.332;12.410;2022-12-07T00:56:07;3.38;;;2.38;;
55601;SDS011;59921;51.332;12.410;2022-12-07T00:58:34;2.88;;;2.30;;
55601;SDS011;59921;51.332;12.410;2022-12-07T01:01:03;2.75;;;2.28;;
55601;SDS011;59921;51.332;12.410;2022-12-07T01:03:30;3.05;;;2.40;;
55601;SDS011;59921;51.332;12.410;2022-12-07T01:05:56;2.85;;;2.28;;
55601;SDS011;59921;51.332;12.410;2022-12-07T01:08:23;2.92;;;2.42;;
55601;SDS011;59921;51.332;12.410;2022-12-07T01:10:56;3.03;;;2.25;;
55601;SDS011;59921;51.332;12.410;2022-12-07T01:13:26;3.33;;;2.30;;
55601;SDS011;59921;51.332;12.410;2022-12-07T01:15:55;3.10;;;2.30;;
55601;SDS011;59921;51.332;12.410;2022-12-07T01:18:22;2.38;;;2.10;;
55601;SDS011;59921;51.332;12.410;2022-12-07T01:20:57;2.40;;;2.20;;
55601;SDS011;59921;51.332;12.410;2022-12-07T01:23:27;2.67;;;2.25;;
55601;SDS011;59921;51.332;12.410;2022-12-07T01:25:56;3.00;;;2.25;;
55601;SDS011;59921;51.332;12.410;2022-12-07T01:28:22;2.70;;;2.20;;
55601;SDS011;59921;51.332;12.410;2022-12-07T01:30:55;2.95;;;2.20;;
55601;SDS011;59921;51.332;12.410;2022-12-07T01:33:21;2.47;;;2.20;;
55601;SDS011;59921;51.332;12.410;2022-12-07T01:35:47;2.85;;;2.15;;
55601;SDS011;59921;51.332;12.410;2022-12-07T01:38:12;3.15;;;2.30;;
55601;SDS011;59921;51.332;12.410;2022-12-07T01:40:38;2.63;;;2.15;;
55601;SDS011;59921;51.332;12.410;2022-12-07T01:43:07;2.38;;;2.10;;
55601;SDS011;59921;51.332;12.410;2022-12-07T01:45:43;2.50;;;2.25;;
55601;SDS011;59921;51.332;12.410;2022-12-07T01:48:09;2.65;;;2.00;;
55601;SDS011;59921;51.332;12.410;2022-12-07T01:50:38;2.90;;;2.17;;
55601;SDS011;59921;51.332;12.410;2022-12-07T01:53:06;2.40;;;2.17;;
55601;SDS011;59921;51.332;12.410;2022-12-07T01:55:35;2.83;;;2.10;;
55601;SDS011;59921;51.332;12.410;2022-12-07T01:58:05;2.58;;;2.00;;
55601;SDS011;59921;51.332;12.410;2022-12-07T02:00:31;2.60;;;2.10;;
55601;SDS011;59921;51.332;12.410;2022-12-07T02:03:04;2.67;;;2.00;;
55601;SDS011;59921;51.332;12.410;2022-12-07T02:05:35;2.65;;;2.10;;
55601;SDS011;59921;51.332;12.410;2022-12-07T02:08:03;2.55;;;2.10;;
55601;SDS011;59921;51.332;12.410;2022-12-07T02:10:30;2.60;;;2.10;;
55601;SDS011;59921;51.332;12.410;2022-12-07T02:12:58;2.95;;;2.28;;
55601;SDS011;59921;51.332;12.410;2022-12-07T02:15:31;3.25;;;2.47;;
55601;SDS011;59921;51.332;12.410;2022-12-07T02:18:31;2.60;;;2.10;;
55601;SDS011;59921;51.332;12.410;2022-12-07T02:29:51;2.88;;;2.25;;
55601;SDS011;59921;51.332;12.410;2022-12-07T02:32:22;2.58;;;2.28;;
55601;SDS011;59921;51.332;12.410;2022-12-07T02:34:56;2.75;;;2.20;;
55601;SDS011;59921;51.332;12.410;2022-12-07T02:40:10;2.80;;;2.13;;
55601;SDS011;59921;51.332;12.410;2022-12-07T02:42:49;2.95;;;2.30;;
55601;SDS011;59921;51.332;12.410;2022-12-07T02:45:20;2.58;;;2.00;;
55601;SDS011;59921;51.332;12.410;2022-12-07T02:47:48;2.50;;;2.03;;
55601;SDS011;59921;51.332;12.410;2022-12-07T02:50:20;2.50;;;2.20;;
55601;SDS011;59921;51.332;12.410;2022-12-07T02:52:46;2.78;;;2.33;;
55601;SDS011;59921;51.332;12.410;2022-12-07T02:55:12;2.72;;;2.10;;
55601;SDS011;59921;51.332;12.410;2022-12-07T02:57:53;2.75;;;2.15;;
55601;SDS011;59921;51.332;12.410;2022-12-07T03:00:26;2.97;;;2.20;;
55601;SDS011;59921;51.332;12.410;2022-12-07T03:03:04;2.70;;;2.15;;
55601;SDS011;59921;51.332;12.410;2022-12-07T03:11:02;2.83;;;2.08;;
55601;SDS011;59921;51.332;12.410;2022-12-07T03:13:38;2.80;;;2.10;;
55601;SDS011;59921;51.332;12.410;2022-12-07T03:16:14;2.15;;;1.95;;
55601;SDS011;59921;51.332;12.410;2022-12-07T03:19:00;2.78;;;2.08;;
55601;SDS011;59921;51.332;12.410;2022-12-07T03:21:34;2.78;;;2.22;;
55601;SDS011;59921;51.332;12.410;2022-12-07T03:24:05;2.50;;;2.17;;
55601;SDS011;59921;51.332;12.410;2022-12-07T03:26:36;2.70;;;2.20;;
55601;SDS011;59921;51.332;12.410;2022-12-07T03:29:08;2.58;;;2.10;;
55601;SDS011;59921;51.332;12.410;2022-12-07T03:31:44;2.45;;;2.10;;
55601;SDS011;59921;51.332;12.410;2022-12-07T03:34:18;2.78;;;2.05;;
55601;SDS011;59921;51.332;12.410;2022-12-07T03:42:01;2.67;;;2.00;;
55601;SDS011;59921;51.332;12.410;2022-12-07T03:44:29;2.30;;;2.10;;
55601;SDS011;59921;51.332;12.410;2022-12-07T03:47:00;2.72;;;2.20;;
55601;SDS011;59921;51.332;12.410;2022-12-07T03:49:46;3.42;;;2.30;;
55601;SDS011;59921;51.332;12.410;2022-12-07T03:52:33;3.30;;;2.20;;
55601;SDS011;59921;51.332;12.410;2022-12-07T03:55:11;2.60;;;2.17;;
55601;SDS011;59921;51.332;12.410;2022-12-07T03:57:43;2.35;;;1.95;;
55601;SDS011;59921;51.332;12.410;2022-12-07T04:00:11;2.40;;;2.10;;
55601;SDS011;59921;51.332;12.410;2022-12-07T04:02:37;2.63;;;2.15;;
55601;SDS011;59921;51.332;12.410;2022-12-07T04:05:03;2.40;;;1.92;;
55601;SDS011;59921;51.332;12.410;2022-12-07T04:07:29;2.92;;;2.20;;
55601;SDS011;59921;51.332;12.410;2022-12-07T04:09:55;2.42;;;2.03;;
55601;SDS011;59921;51.332;12.410;2022-12-07T04:12:21;2.80;;;2.00;;
55601;SDS011;59921;51.332;12.410;2022-12-07T04:14:47;2.83;;;2.30;;
55601;SDS011;59921;51.332;12.410;2022-12-07T04:17:13;2.50;;;2.03;;
55601;SDS011;59921;51.332;12.410;2022-12-07T04:19:38;2.97;;;2.20;;
55601;SDS011;59921;51.332;12.410;2022-12-07T04:22:04;2.83;;;2.00;;
55601;SDS011;59921;51.332;12.410;2022-12-07T04:24:30;2.25;;;2.05;;
55601;SDS011;59921;51.332;12.410;2022-12-07T04:26:56;2.80;;;2.20;;
55601;SDS011;59921;51.332;12.410;2022-12-07T04:29:22;3.13;;;2.08;;
55601;SDS011;59921;51.332;12.410;2022-12-07T04:31:48;2.83;;;2.20;;
55601;SDS011;59921;51.332;12.410;2022-12-07T04:34:13;3.08;;;2.40;;
55601;SDS011;59921;51.332;12.410;2022-12-07T04:36:40;2.38;;;2.00;;
55601;SDS011;59921;51.332;12.410;2022-12-07T04:39:11;2.67;;;2.13;;
55601;SDS011;59921;51.332;12.410;2022-12-07T04:41:43;2.80;;;2.17;;
55601;SDS011;59921;51.332;12.410;2022-12-07T04:44:08;3.33;;;2.40;;
55601;SDS011;59921;51.332;12.410;2022-12-07T04:46:33;3.22;;;2.20;;
55601;SDS011;59921;51.332;12.410;2022-12-07T04:48:59;2.58;;;2.00;;
55601;SDS011;59921;51.332;12.410;2022-12-07T04:51:25;2.47;;;2.03;;
55601;SDS011;59921;51.332;12.410;2022-12-07T04:53:53;2.30;;;1.98;;
55601;SDS011;59921;51.332;12.410;2022-12-07T04:56:19;3.25;;;2.30;;
55601;SDS011;59921;51.332;12.410;2022-12-07T04:58:47;3.00;;;2.40;;
55601;SDS011;59921;51.332;12.410;2022-12-07T05:01:13;3.15;;;2.20;;
55601;SDS011;59921;51.332;12.410;2022-12-07T05:03:41;2.88;;;2.10;;
55601;SDS011;59921;51.332;12.410;2022-12-07T05:06:07;3.30;;;2.25;;
55601;SDS011;59921;51.332;12.410;2022-12-07T05:08:34;2.65;;;1.98;;
55601;SDS011;59921;51.332;12.410;2022-12-07T05:11:00;2.35;;;1.95;;
55601;SDS011;59921;51.332;12.410;2022-12-07T05:13:26;2.30;;;1.80;;
55601;SDS011;59921;51.332;12.410;2022-12-07T05:15:51;3.03;;;2.28;;
55601;SDS011;59921;51.332;12.410;2022-12-07T05:18:17;2.70;;;2.20;;
55601;SDS011;59921;51.332;12.410;2022-12-07T05:20:42;2.47;;;2.00;;
55601;SDS011;59921;51.332;12.410;2022-12-07T05:23:09;3.05;;;2.20;;
55601;SDS011;59921;51.332;12.410;2022-12-07T05:25:34;2.80;;;2.10;;
55601;SDS011;59921;51.332;12.410;2022-12-07T05:28:00;2.88;;;2.10;;
55601;SDS011;59921;51.332;12.410;2022-12-07T05:30:25;3.00;;;2.20;;
55601;SDS011;59921;51.332;12.410;2022-12-07T05:32:51;2.60;;;2.10;;
55601;SDS011;59921;51.332;12.410;2022-12-07T05:35:17;2.70;;;2.00;;
55601;SDS011;59921;51.332;12.410;2022-12-07T05:37:43;3.63;;;2.20;;
55601;SDS011;59921;51.332;12.410;2022-12-07T05:40:09;3.08;;;2.00;;
55601;SDS011;59921;51.332;12.410;2022-12-07T05:42:35;3.20;;;2.10;;
55601;SDS011;59921;51.332;12.410;2022-12-07T05:45:00;2.88;;;2.20;;
55601;SDS011;59921;51.332;12.410;2022-12-07T05:47:38;2.83;;;2.10;;
55601;SDS011;59921;51.332;12.410;2022-12-07T05:50:03;3.22;;;2.20;;
55601;SDS011;59921;51.332;12.410;2022-12-07T05:52:30;3.03;;;2.10;;
55601;SDS011;59921;51.332;12.410;2022-12-07T05:54:56;2.63;;;2.05;;
55601;SDS011;59921;51.332;12.410;2022-12-07T05:57:21;4.50;;;2.45;;
55601;SDS011;59921;51.332;12.410;2022-12-07T05:59:47;3.38;;;2.15;;
55601;SDS011;59921;51.332;12.410;2022-12-07T06:02:13;3.20;;;2.47;;
55601;SDS011;59921;51.332;12.410;2022-12-07T06:04:44;2.95;;;2.20;;
55601;SDS011;59921;51.332;12.410;2022-12-07T06:07:12;2.53;;;1.90;;
55601;SDS011;59921;51.332;12.410;2022-12-07T06:09:39;2.70;;;2.10;;
55601;SDS011;59921;51.332;12.410;2022-12-07T06:12:04;2.88;;;2.10;;
55601;SDS011;59921;51.332;12.410;2022-12-07T06:14:49;4.13;;;1.90;;
55601;SDS011;59921;51.332;12.410;2022-12-07T06:17:15;3.33;;;2.00;;
55601;SDS011;59921;51.332;12.410;2022-12-07T06:19:41;2.75;;;2.10;;
55601;SDS011;59921;51.332;12.410;2022-12-07T06:22:06;2.50;;;2.13;;
55601;SDS011;59921;51.332;12.410;2022-12-07T06:24:34;3.17;;;2.20;;
55601;SDS011;59921;51.332;12.410;2022-12-07T06:26:59;3.20;;;2.20;;
55601;SDS011;59921;51.332;12.410;2022-12-07T06:29:25;4.13;;;2.20;;
55601;SDS011;59921;51.332;12.410;2022-12-07T06:31:50;3.45;;;2.10;;
55601;SDS011;59921;51.332;12.410;2022-12-07T06:34:17;2.30;;;2.05;;
55601;SDS011;59921;51.332;12.410;2022-12-07T06:36:44;3.00;;;2.30;;
55601;SDS011;59921;51.332;12.410;2022-12-07T06:39:12;3.03;;;2.25;;
55601;SDS011;59921;51.332;12.410;2022-12-07T06:41:38;2.67;;;1.90;;
55601;SDS011;59921;51.332;12.410;2022-12-07T06:44:04;2.65;;;2.08;;
55601;SDS011;59921;51.332;12.410;2022-12-07T06:46:31;2.95;;;2.00;;
55601;SDS011;59921;51.332;12.410;2022-12-07T06:48:57;2.88;;;2.35;;
55601;SDS011;59921;51.332;12.410;2022-12-07T06:51:22;2.78;;;2.08;;
55601;SDS011;59921;51.332;12.410;2022-12-07T06:53:48;2.45;;;1.90;;
55601;SDS011;59921;51.332;12.410;2022-12-07T06:56:13;3.05;;;2.03;;
55601;SDS011;59921;51.332;12.410;2022-12-07T06:58:40;2.83;;;2.03;;
55601;SDS011;59921;51.332;12.410;2022-12-07T07:01:12;2.10;;;1.80;;
55601;SDS011;59921;51.332;12.410;2022-12-07T07:03:39;2.30;;;1.83;;
55601;SDS011;59921;51.332;12.410;2022-12-07T07:06:05;2.67;;;2.20;;
55601;SDS011;59921;51.332;12.410;2022-12-07T07:08:31;2.42;;;1.88;;
55601;SDS011;59921;51.332;12.410;2022-12-07T07:10:56;2.45;;;1.98;;
55601;SDS011;59921;51.332;12.410;2022-12-07T07:13:22;3.05;;;2.13;;
55601;SDS011;59921;51.332;12.410;2022-12-07T07:15:47;3.22;;;1.90;;
55601;SDS011;59921;51.332;12.410;2022-12-07T07:18:13;2.58;;;1.92;;
55601;SDS011;59921;51.332;12.410;2022-12-07T07:20:38;2.75;;;2.00;;
55601;SDS011;59921;51.332;12.410;2022-12-07T07:23:04;2.30;;;1.80;;
55601;SDS011;59921;51.332;12.410;2022-12-07T07:25:30;2.38;;;2.00;;
55601;SDS011;59921;51.332;12.410;2022-12-07T07:27:56;2.53;;;2.00;;
55601;SDS011;59921;51.332;12.410;2022-12-07T07:30:22;2.65;;;2.00;;
55601;SDS011;59921;51.332;12.410;2022-12-07T07:32:47;2.78;;;2.10;;
55601;SDS011;59921;51.332;12.410;2022-12-07T07:35:13;2.90;;;2.00;;
55601;SDS011;59921;51.332;12.410;2022-12-07T07:37:39;2.33;;;1.80;;
55601;SDS011;59921;51.332;12.410;2022-12-07T07:40:05;2.97;;;2.20;;
55601;SDS011;59921;51.332;12.410;2022-12-07T07:42:32;2.45;;;1.88;;
55601;SDS011;59921;51.332;12.410;2022-12-07T07:44:58;3.00;;;2.05;;
55601;SDS011;59921;51.332;12.410;2022-12-07T07:47:23;2.20;;;1.70;;
55601;SDS011;59921;51.332;12.410;2022-12-07T07:49:49;3.10;;;2.13;;
55601;SDS011;59921;51.332;12.410;2022-12-07T07:52:14;2.17;;;1.95;;
55601;SDS011;59921;51.332;12.410;2022-12-07T07:54:40;3.25;;;2.00;;
55601;SDS011;59921;51.332;12.410;2022-12-07T07:57:05;3.38;;;2.10;;
55601;SDS011;59921;51.332;12.410;2022-12-07T07:59:31;3.85;;;2.50;;
55601;SDS011;59921;51.332;12.410;2022-12-07T08:01:56;2.88;;;2.10;;
55601;SDS011;59921;51.332;12.410;2022-12-07T08:04:22;2.88;;;2.20;;
55601;SDS011;59921;51.332;12.410;2022-12-07T08:06:47;3.35;;;2.20;;
55601;SDS011;59921;51.332;12.410;2022-12-07T08:09:13;3.60;;;2.50;;
55601;SDS011;59921;51.332;12.410;2022-12-07T08:11:39;4.03;;;2.47;;
55601;SDS011;59921;51.332;12.410;2022-12-07T08:14:04;2.75;;;2.00;;
55601;SDS011;59921;51.332;12.410;2022-12-07T08:16:30;3.38;;;2.42;;
55601;SDS011;59921;51.332;12.410;2022-12-07T08:18:55;3.22;;;2.40;;
55601;SDS011;59921;51.332;12.410;2022-12-07T08:21:21;2.83;;;2.10;;
55601;SDS011;59921;51.332;12.410;2022-12-07T08:23:47;3.17;;;2.28;;
55601;SDS011;59921;51.332;12.410;2022-12-07T08:26:14;3.30;;;2.25;;
55601;SDS011;59921;51.332;12.410;2022-12-07T08:28:40;3.80;;;2.60;;
55601;SDS011;59921;51.332;12.410;2022-12-07T08:31:13;3.00;;;2.33;;
55601;SDS011;59921;51.332;12.410;2022-12-07T08:33:41;3.67;;;2.55;;
55601;SDS011;59921;51.332;12.410;2022-12-07T08:36:08;3.47;;;2.40;;
55601;SDS011;59921;51.332;12.410;2022-12-07T08:38:35;3.75;;;2.67;;
55601;SDS011;59921;51.332;12.410;2022-12-07T08:41:01;3.20;;;2.35;;
55601;SDS011;59921;51.332;12.410;2022-12-07T08:43:28;3.10;;;2.50;;
55601;SDS011;59921;51.332;12.410;2022-12-07T08:46:02;3.88;;;2.60;;
55601;SDS011;59921;51.332;12.410;2022-12-07T08:48:45;3.78;;;2.40;;
55601;SDS011;59921;51.332;12.410;2022-12-07T08:51:14;4.53;;;2.83;;
55601;SDS011;59921;51.332;12.410;2022-12-07T08:53:40;3.00;;;2.50;;
55601;SDS011;59921;51.332;12.410;2022-12-07T08:56:06;3.42;;;2.60;;
55601;SDS011;59921;51.332;12.410;2022-12-07T08:58:33;3.10;;;2.47;;
55601;SDS011;59921;51.332;12.410;2022-12-07T09:01:00;3.13;;;2.63;;
55601;SDS011;59921;51.332;12.410;2022-12-07T09:03:26;3.00;;;2.40;;
55601;SDS011;59921;51.332;12.410;2022-12-07T09:05:52;4.55;;;2.47;;
55601;SDS011;59921;51.332;12.410;2022-12-07T09:08:18;4.07;;;2.60;;
55601;SDS011;59921;51.332;12.410;2022-12-07T09:10:44;3.70;;;2.60;;
55601;SDS011;59921;51.332;12.410;2022-12-07T09:13:10;3.58;;;2.50;;
55601;SDS011;59921;51.332;12.410;2022-12-07T09:15:36;3.75;;;2.90;;
55601;SDS011;59921;51.332;12.410;2022-12-07T09:18:01;3.60;;;2.72;;
55601;SDS011;59921;51.332;12.410;2022-12-07T09:20:27;3.22;;;2.40;;
55601;SDS011;59921;51.332;12.410;2022-12-07T09:22:52;3.90;;;2.88;;
55601;SDS011;59921;51.332;12.410;2022-12-07T09:25:18;3.75;;;2.70;;
55601;SDS011;59921;51.332;12.410;2022-12-07T09:27:43;3.67;;;2.70;;
55601;SDS011;59921;51.332;12.410;2022-12-07T09:30:09;3.83;;;2.58;;
55601;SDS011;59921;51.332;12.410;2022-12-07T09:32:35;3.75;;;2.85;;
55601;SDS011;59921;51.332;12.410;2022-12-07T09:35:06;4.32;;;3.08;;
55601;SDS011;59921;51.332;12.410;2022-12-07T09:37:32;4.22;;;2.80;;
55601;SDS011;59921;51.332;12.410;2022-12-07T09:40:00;4.32;;;2.88;;
55601;SDS011;59921;51.332;12.410;2022-12-07T09:44:58;3.92;;;2.67;;
55601;SDS011;59921;51.332;12.410;2022-12-07T09:47:24;3.63;;;2.60;;
55601;SDS011;59921;51.332;12.410;2022-12-07T09:49:50;3.92;;;2.67;;
55601;SDS011;59921;51.332;12.410;2022-12-07T09:52:20;3.88;;;2.70;;
55601;SDS011;59921;51.332;12.410;2022-12-07T09:54:50;3.47;;;2.72;;
55601;SDS011;59921;51.332;12.410;2022-12-07T09:57:17;4.22;;;2.75;;
55601;SDS011;59921;51.332;12.410;2022-12-07T09:59:44;3.72;;;2.60;;
55601;SDS011;59921;51.332;12.410;2022-12-07T10:02:24;4.30;;;2.80;;
55601;SDS011;59921;51.332;12.410;2022-12-07T10:04:58;4.28;;;2.80;;
55601;SDS011;59921;51.332;12.410;2022-12-07T10:07:24;3.60;;;2.67;;
55601;SDS011;59921;51.332;12.410;2022-12-07T10:09:50;3.50;;;2.50;;
55601;SDS011;59921;51.332;12.410;2022-12-07T10:12:15;4.20;;;2.80;;
55601;SDS011;59921;51.332;12.410;2022-12-07T10:14:54;4.15;;;2.90;;
55601;SDS011;59921;51.332;12.410;2022-12-07T10:17:30;3.53;;;2.50;;
55601;SDS011;59921;51.332;12.410;2022-12-07T10:22:36;2.97;;;2.50;;
55601;SDS011;59921;51.332;12.410;2022-12-07T10:25:09;3.45;;;2.70;;
55601;SDS011;59921;51.332;12.410;2022-12-07T10:27:44;3.20;;;2.45;;
55601;SDS011;59921;51.332;12.410;2022-12-07T10:30:23;3.55;;;2.70;;
55601;SDS011;59921;51.332;12.410;2022-12-07T10:32:49;3.83;;;2.70;;
55601;SDS011;59921;51.332;12.410;2022-12-07T10:35:22;3.33;;;2.50;;
55601;SDS011;59921;51.332;12.410;2022-12-07T10:37:49;3.72;;;2.63;;
55601;SDS011;59921;51.332;12.410;2022-12-07T10:40:35;3.35;;;2.50;;
55601;SDS011;59921;51.332;12.410;2022-12-07T10:43:02;3.47;;;2.28;;
55601;SDS011;59921;51.332;12.410;2022-12-07T10:45:30;4.80;;;2.50;;
55601;SDS011;59921;51.332;12.410;2022-12-07T10:53:40;3.83;;;2.70;;
55601;SDS011;59921;51.332;12.410;2022-12-07T10:57:16;3.58;;;2.45;;
55601;SDS011;59921;51.332;12.410;2022-12-07T10:59:52;3.38;;;2.67;;
55601;SDS011;59921;51.332;12.410;2022-12-07T11:05:01;4.07;;;2.40;;
55601;SDS011;59921;51.332;12.410;2022-12-07T11:11:09;2.90;;;2.30;;
55601;SDS011;59921;51.332;12.410;2022-12-07T11:13:25;4.55;;;2.50;;
55601;SDS011;59921;51.332;12.410;2022-12-07T11:19:14;3.20;;;2.50;;
55601;SDS011;59921;51.332;12.410;2022-12-07T11:21:27;4.13;;;2.50;;
55601;SDS011;59921;51.332;12.410;2022-12-07T11:26:59;3.83;;;2.13;;
55601;SDS011;59921;51.332;12.410;2022-12-07T11:29:43;3.60;;;2.40;;
55601;SDS011;59921;51.332;12.410;2022-12-07T11:35:30;3.28;;;2.40;;
55601;SDS011;59921;51.332;12.410;2022-12-07T11:38:07;3.13;;;2.20;;
55601;SDS011;59921;51.332;12.410;2022-12-07T11:40:37;3.80;;;2.28;;
55601;SDS011;59921;51.332;12.410;2022-12-07T11:45:41;2.97;;;2.45;;
55601;SDS011;59921;51.332;12.410;2022-12-07T11:48:17;4.15;;;2.22;;
55601;SDS011;59921;51.332;12.410;2022-12-07T11:56:08;3.25;;;2.47;;
55601;SDS011;59921;51.332;12.410;2022-12-07T12:06:34;4.57;;;2.65;;
55601;SDS011;59921;51.332;12.410;2022-12-07T12:09:09;3.22;;;2.45;;
55601;SDS011;59921;51.332;12.410;2022-12-07T12:14:38;3.92;;;2.75;;
55601;SDS011;59921;51.332;12.410;2022-12-07T12:17:22;4.32;;;2.60;;
55601;SDS011;59921;51.332;12.410;2022-12-07T12:20:13;3.90;;;2.72;;
55601;SDS011;59921;51.332;12.410;2022-12-07T12:26:00;4.25;;;3.00;;
55601;SDS011;59921;51.332;12.410;2022-12-07T12:33:54;4.40;;;2.85;;
55601;SDS011;59921;51.332;12.410;2022-12-07T12:44:02;4.82;;;2.90;;
55601;SDS011;59921;51.332;12.410;2022-12-07T12:51:54;4.30;;;2.90;;
55601;SDS011;59921;51.332;12.410;2022-12-07T12:56:52;4.32;;;2.83;;
55601;SDS011;59921;51.332;12.410;2022-12-07T13:02:16;4.78;;;3.20;;
55601;SDS011;59921;51.332;12.410;2022-12-07T13:15:46;5.57;;;3.20;;
55601;SDS011;59921;51.332;12.410;2022-12-07T13:26:26;3.88;;;2.83;;
55601;SDS011;59921;51.332;12.410;2022-12-07T13:37:00;4.80;;;2.90;;
55601;SDS011;59921;51.332;12.410;2022-12-07T13:39:29;4.47;;;2.80;;
55601;SDS011;59921;51.332;12.410;2022-12-07T13:41:58;4.65;;;2.90;;
55601;SDS011;59921;51.332;12.410;2022-12-07T13:44:27;3.80;;;2.88;;
55601;SDS011;59921;51.332;12.410;2022-12-07T13:47:00;4.85;;;2.75;;
55601;SDS011;59921;51.332;12.410;2022-12-07T13:49:32;4.97;;;2.75;;
55601;SDS011;59921;51.332;12.410;2022-12-07T13:57:30;3.95;;;2.90;;
55601;SDS011;59921;51.332;12.410;2022-12-07T13:59:58;4.22;;;2.75;;
55601;SDS011;59921;51.332;12.410;2022-12-07T14:02:29;4.43;;;2.58;;
55601;SDS011;59921;51.332;12.410;2022-12-07T14:07:48;3.95;;;2.70;;
55601;SDS011;59921;51.332;12.410;2022-12-07T14:10:26;4.05;;;2.58;;
55601;SDS011;59921;51.332;12.410;2022-12-07T14:12:57;5.30;;;2.65;;
55601;SDS011;59921;51.332;12.410;2022-12-07T14:15:25;4.10;;;2.53;;
55601;SDS011;59921;51.332;12.410;2022-12-07T14:17:54;5.05;;;2.85;;
55601;SDS011;59921;51.332;12.410;2022-12-07T14:20:39;4.00;;;2.40;;
55601;SDS011;59921;51.332;12.410;2022-12-07T14:23:20;3.97;;;2.70;;
55601;SDS011;59921;51.332;12.410;2022-12-07T14:25:50;3.08;;;2.40;;
55601;SDS011;59921;51.332;12.410;2022-12-07T14:28:30;3.13;;;2.40;;
55601;SDS011;59921;51.332;12.410;2022-12-07T14:30:57;3.97;;;2.38;;
55601;SDS011;59921;51.332;12.410;2022-12-07T14:33:23;3.50;;;2.20;;
55601;SDS011;59921;51.332;12.410;2022-12-07T14:35:50;3.80;;;2.42;;
55601;SDS011;59921;51.332;12.410;2022-12-07T14:38:20;4.47;;;2.33;;
55601;SDS011;59921;51.332;12.410;2022-12-07T14:40:47;3.60;;;2.47;;
55601;SDS011;59921;51.332;12.410;2022-12-07T14:43:14;4.53;;;2.40;;
55601;SDS011;59921;51.332;12.410;2022-12-07T14:45:41;3.67;;;2.20;;
55601;SDS011;59921;51.332;12.410;2022-12-07T14:48:10;3.08;;;2.33;;
55601;SDS011;59921;51.332;12.410;2022-12-07T14:50:39;4.22;;;2.45;;
55601;SDS011;59921;51.332;12.410;2022-12-07T14:53:15;2.95;;;1.92;;
55601;SDS011;59921;51.332;12.410;2022-12-07T14:55:43;3.53;;;2.40;;
55601;SDS011;59921;51.332;12.410;2022-12-07T14:58:13;4.10;;;2.13;;
55601;SDS011;59921;51.332;12.410;2022-12-07T15:00:39;3.10;;;2.30;;
55601;SDS011;59921;51.332;12.410;2022-12-07T15:03:05;3.60;;;2.33;;
55601;SDS011;59921;51.332;12.410;2022-12-07T15:05:30;3.13;;;2.00;;
55601;SDS011;59921;51.332;12.410;2022-12-07T15:07:57;3.53;;;2.28;;
55601;SDS011;59921;51.332;12.410;2022-12-07T15:10:24;2.97;;;2.13;;
55601;SDS011;59921;51.332;12.410;2022-12-07T15:12:58;3.90;;;2.30;;
55601;SDS011;59921;51.332;12.410;2022-12-07T15:15:42;3.50;;;2.25;;
55601;SDS011;59921;51.332;12.410;2022-12-07T15:18:08;4.35;;;2.25;;
55601;SDS011;59921;51.332;12.410;2022-12-07T15:20:33;2.40;;;1.90;;
55601;SDS011;59921;51.332;12.410;2022-12-07T15:22:59;5.05;;;2.05;;
55601;SDS011;59921;51.332;12.410;2022-12-07T15:25:24;3.97;;;2.05;;
55601;SDS011;59921;51.332;12.410;2022-12-07T15:27:50;3.90;;;2.42;;
55601;SDS011;59921;51.332;12.410;2022-12-07T15:30:15;3.00;;;2.10;;
55601;SDS011;59921;51.332;12.410;2022-12-07T15:32:41;2.83;;;1.95;;
55601;SDS011;59921;51.332;12.410;2022-12-07T15:35:06;3.40;;;2.30;;
55601;SDS011;59921;51.332;12.410;2022-12-07T15:37:32;3.15;;;2.03;;
55601;SDS011;59921;51.332;12.410;2022-12-07T15:39:58;2.95;;;2.10;;
55601;SDS011;59921;51.332;12.410;2022-12-07T15:42:23;2.72;;;1.90;;
55601;SDS011;59921;51.332;12.410;2022-12-07T15:44:49;3.47;;;2.08;;
55601;SDS011;59921;51.332;12.410;2022-12-07T15:47:51;3.05;;;2.00;;
55601;SDS011;59921;51.332;12.410;2022-12-07T15:50:15;2.60;;;1.90;;
55601;SDS011;59921;51.332;12.410;2022-12-07T15:52:42;2.65;;;1.73;;
55601;SDS011;59921;51.332;12.410;2022-12-07T15:55:08;2.92;;;1.92;;
55601;SDS011;59921;51.332;12.410;2022-12-07T15:57:35;3.80;;;2.03;;
55601;SDS011;59921;51.332;12.410;2022-12-07T16:00:02;3.60;;;1.80;;
55601;SDS011;59921;51.332;12.410;2022-12-07T16:02:33;2.50;;;1.63;;
55601;SDS011;59921;51.332;12.410;2022-12-07T16:04:59;3.10;;;1.90;;
55601;SDS011;59921;51.332;12.410;2022-12-07T16:07:25;3.78;;;1.90;;
55601;SDS011;59921;51.332;12.410;2022-12-07T16:09:50;3.10;;;2.00;;
55601;SDS011;59921;51.332;12.410;2022-12-07T16:12:16;3.88;;;1.90;;
55601;SDS011;59921;51.332;12.410;2022-12-07T16:14:41;2.88;;;1.60;;
55601;SDS011;59921;51.332;12.410;2022-12-07T16:17:08;3.10;;;1.95;;
55601;SDS011;59921;51.332;12.410;2022-12-07T16:19:35;2.63;;;1.92;;
55601;SDS011;59921;51.332;12.410;2022-12-07T16:22:02;2.80;;;1.92;;
55601;SDS011;59921;51.332;12.410;2022-12-07T16:24:29;3.17;;;1.77;;
55601;SDS011;59921;51.332;12.410;2022-12-07T16:26:55;3.83;;;1.90;;
55601;SDS011;59921;51.332;12.410;2022-12-07T16:29:21;3.05;;;1.70;;
55601;SDS011;59921;51.332;12.410;2022-12-07T16:31:47;2.40;;;1.70;;
55601;SDS011;59921;51.332;12.410;2022-12-07T16:34:13;2.90;;;2.00;;
55601;SDS011;59921;51.332;12.410;2022-12-07T16:36:39;3.35;;;1.85;;
55601;SDS011;59921;51.332;12.410;2022-12-07T16:39:05;2.97;;;1.90;;
55601;SDS011;59921;51.332;12.410;2022-12-07T16:41:31;2.40;;;1.80;;
55601;SDS011;59921;51.332;12.410;2022-12-07T16:43:58;3.40;;;1.90;;
55601;SDS011;59921;51.332;12.410;2022-12-07T16:46:29;2.67;;;1.60;;
55601;SDS011;59921;51.332;12.410;2022-12-07T16:48:56;2.80;;;1.60;;
55601;SDS011;59921;51.332;12.410;2022-12-07T16:51:22;3.05;;;1.90;;
55601;SDS011;59921;51.332;12.410;2022-12-07T16:53:47;3.17;;;1.90;;